createdAt,value
2022-11-20T00:00:46.454Z,61.84
2022-11-20T00:01:53.043Z,62.15
2022-11-20T00:02:54.796Z,62.17
2022-11-20T00:03:58.942Z,62.38
2022-11-20T00:05:00.733Z,62.76
2022-11-20T00:06:07.385Z,63.95
2022-11-20T00:07:09.201Z,64.46
2022-11-20T00:08:11.482Z,63.92
2022-11-20T00:09:13.389Z,62.57
2022-11-20T00:10:15.262Z,61.03
2022-11-20T00:11:20.644Z,59.43
2022-11-20T00:12:22.357Z,56.75
2022-11-20T00:13:24.333Z,54.25
2022-11-20T00:14:26.093Z,53.31
2022-11-20T00:15:27.829Z,53.26
2022-11-20T00:16:33.053Z,53.68
2022-11-20T00:17:34.832Z,54.18
2022-11-20T00:18:37.141Z,54.70
2022-11-20T00:19:38.876Z,55.36
2022-11-20T00:20:40.649Z,56.00
2022-11-20T00:21:42.508Z,56.38
2022-11-20T00:22:44.290Z,56.72
2022-11-20T00:23:46.683Z,57.25
2022-11-20T00:24:48.471Z,57.69
2022-11-20T00:25:50.212Z,57.94
2022-11-20T00:26:51.966Z,58.51
2022-11-20T00:27:53.730Z,59.01
2022-11-20T00:29:02.287Z,59.32
2022-11-20T00:30:05.755Z,59.60
2022-11-20T00:31:13.811Z,60.11
2022-11-20T00:32:15.954Z,60.47
2022-11-20T00:33:17.707Z,60.68
2022-11-20T00:34:19.640Z,60.77
2022-11-20T00:35:21.613Z,61.17
2022-11-20T00:36:26.759Z,61.50
2022-11-20T00:37:28.571Z,61.53
2022-11-20T00:38:31.216Z,61.51
2022-11-20T00:39:33.140Z,61.57
2022-11-20T00:40:35.075Z,61.96
2022-11-20T00:41:36.875Z,62.28
2022-11-20T00:42:43.188Z,62.34
2022-11-20T00:43:45.137Z,62.95
2022-11-20T00:44:46.877Z,64.17
2022-11-20T00:45:48.695Z,64.62
2022-11-20T00:46:50.466Z,64.34
2022-11-20T00:47:52.244Z,63.19
2022-11-20T00:48:54.612Z,62.07
2022-11-20T00:49:56.345Z,60.00
2022-11-20T00:50:58.840Z,57.73
2022-11-20T00:52:00.647Z,54.98
2022-11-20T00:53:02.357Z,53.64
2022-11-20T00:54:04.380Z,53.36
2022-11-20T00:55:06.892Z,53.72
2022-11-20T00:56:13.558Z,54.35
2022-11-20T00:57:15.309Z,54.98
2022-11-20T00:58:17.037Z,55.27
2022-11-20T00:59:18.803Z,55.86
2022-11-20T01:00:20.679Z,56.38
2022-11-20T01:01:26.081Z,56.72
2022-11-20T01:02:27.996Z,57.11
2022-11-20T01:03:35.593Z,57.63
2022-11-20T01:04:37.754Z,58.12
2022-11-20T01:05:39.474Z,58.45
2022-11-20T01:06:41.579Z,58.77
2022-11-20T01:07:43.341Z,59.21
2022-11-20T01:08:46.348Z,59.60
2022-11-20T01:09:48.060Z,59.75
2022-11-20T01:10:49.775Z,59.97
2022-11-20T01:11:51.567Z,60.18
2022-11-20T01:13:13.270Z,60.29
2022-11-20T01:14:19.589Z,60.61
2022-11-20T01:15:21.329Z,60.82
2022-11-20T01:16:24.544Z,61.07
2022-11-20T01:17:26.305Z,61.41
2022-11-20T01:18:28.055Z,61.64
2022-11-20T01:19:29.755Z,61.86
2022-11-20T01:20:34.772Z,62.10
2022-11-20T01:21:39.553Z,62.35
2022-11-20T01:22:41.278Z,62.43
2022-11-20T01:23:45.019Z,62.48
2022-11-20T01:24:46.808Z,63.36
2022-11-20T01:25:48.626Z,64.37
2022-11-20T01:26:52.308Z,64.18
2022-11-20T01:27:54.279Z,63.39
2022-11-20T01:28:58.159Z,62.74
2022-11-20T01:30:01.272Z,60.66
2022-11-20T01:31:31.554Z,58.07
2022-11-20T01:32:33.306Z,54.32
2022-11-20T01:33:35.034Z,53.16
2022-11-20T01:34:36.799Z,53.02
2022-11-20T01:35:39.090Z,53.32
2022-11-20T01:36:43.526Z,53.89
2022-11-20T01:37:45.278Z,54.48
2022-11-20T01:38:47.280Z,55.29
2022-11-20T01:39:48.990Z,56.02
2022-11-20T01:40:57.326Z,56.68
2022-11-20T01:42:17.812Z,57.25
2022-11-20T01:43:24.170Z,57.55
2022-11-20T01:45:05.101Z,58.16
2022-11-20T01:46:16.438Z,58.94
2022-11-20T01:47:39.520Z,59.37
2022-11-20T01:48:53.134Z,59.98
2022-11-20T01:50:17.628Z,60.49
2022-11-20T01:51:35.028Z,60.80
2022-11-20T01:52:49.558Z,61.25
2022-11-20T01:53:55.319Z,61.43
2022-11-20T01:55:29.545Z,61.79
2022-11-20T01:56:37.932Z,62.22
2022-11-20T01:57:40.945Z,62.45
2022-11-20T01:58:51.402Z,63.12
2022-11-20T02:00:10.427Z,64.50
2022-11-20T02:01:18.792Z,64.79
2022-11-20T02:02:22.487Z,63.33
2022-11-20T02:03:24.914Z,62.35
2022-11-20T02:04:26.925Z,61.16
2022-11-20T02:05:46.908Z,59.73
2022-11-20T02:06:54.678Z,56.24
2022-11-20T02:08:00.029Z,53.84
2022-11-20T02:09:01.789Z,53.22
2022-11-20T02:10:04.515Z,53.35
2022-11-20T02:11:06.914Z,53.75
2022-11-20T02:12:29.009Z,54.52
2022-11-20T02:13:46.164Z,55.16
2022-11-20T02:14:47.927Z,55.78
2022-11-20T02:15:50.656Z,56.37
2022-11-20T02:16:53.137Z,57.04
2022-11-20T02:17:55.285Z,57.64
2022-11-20T02:19:01.308Z,57.82
2022-11-20T02:20:04.044Z,58.31
2022-11-20T02:21:25.433Z,58.85
2022-11-20T02:22:38.746Z,59.01
2022-11-20T02:24:15.364Z,59.45
2022-11-20T02:25:19.468Z,59.81
2022-11-20T02:26:24.122Z,60.07
2022-11-20T02:27:27.628Z,60.34
2022-11-20T02:28:29.605Z,60.82
2022-11-20T02:29:56.609Z,61.24
2022-11-20T02:30:58.424Z,61.94
2022-11-20T02:32:02.425Z,62.28
2022-11-20T02:33:04.146Z,62.26
2022-11-20T02:34:08.264Z,62.42
2022-11-20T02:35:18.818Z,63.31
2022-11-20T02:36:20.756Z,64.59
2022-11-20T02:37:23.944Z,64.59
2022-11-20T02:38:25.819Z,63.81
2022-11-20T02:39:29.608Z,62.65
2022-11-20T02:40:33.456Z,61.02
2022-11-20T02:41:38.600Z,59.45
2022-11-20T02:42:41.121Z,56.36
2022-11-20T02:43:42.872Z,53.96
2022-11-20T02:44:45.685Z,53.17
2022-11-20T02:45:47.376Z,53.20
2022-11-20T02:46:49.106Z,53.67
2022-11-20T02:47:51.976Z,54.25
2022-11-20T02:48:53.863Z,55.00
2022-11-20T02:49:55.594Z,55.79
2022-11-20T02:50:57.490Z,56.40
2022-11-20T02:51:59.587Z,56.88
2022-11-20T02:53:01.444Z,57.57
2022-11-20T02:54:03.949Z,58.08
2022-11-20T02:55:06.274Z,58.23
2022-11-20T02:56:08.393Z,58.70
2022-11-20T02:57:10.116Z,58.93
2022-11-20T02:58:11.987Z,59.01
2022-11-20T02:59:13.712Z,59.35
2022-11-20T03:00:15.680Z,59.56
2022-11-20T03:01:17.483Z,59.91
2022-11-20T03:02:19.241Z,60.11
2022-11-20T03:03:21.062Z,60.39
2022-11-20T03:04:23.228Z,60.83
2022-11-20T03:05:25.139Z,61.37
2022-11-20T03:06:27.069Z,61.58
2022-11-20T03:07:28.883Z,62.01
2022-11-20T03:08:30.891Z,62.22
2022-11-20T03:09:32.717Z,62.44
2022-11-20T03:10:34.467Z,63.15
2022-11-20T03:11:36.473Z,64.46
2022-11-20T03:12:38.257Z,64.93
2022-11-20T03:13:40.101Z,64.38
2022-11-20T03:14:50.189Z,63.35
2022-11-20T03:15:54.575Z,61.88
2022-11-20T03:16:57.096Z,60.06
2022-11-20T03:17:59.115Z,58.44
2022-11-20T03:19:04.068Z,56.06
2022-11-20T03:20:07.025Z,54.24
2022-11-20T03:21:11.085Z,53.63
2022-11-20T03:22:12.802Z,53.86
2022-11-20T03:23:14.516Z,54.53
2022-11-20T03:24:16.297Z,55.39
2022-11-20T03:25:18.262Z,56.10
2022-11-20T03:26:23.453Z,56.66
2022-11-20T03:27:25.394Z,57.12
2022-11-20T03:28:27.100Z,57.46
2022-11-20T03:29:28.814Z,58.16
2022-11-20T03:30:31.094Z,58.82
2022-11-20T03:31:41.295Z,59.32
2022-11-20T03:32:43.703Z,59.81
2022-11-20T03:33:45.569Z,60.24
2022-11-20T03:34:47.291Z,60.51
2022-11-20T03:35:49.060Z,60.65
2022-11-20T03:36:50.786Z,60.91
2022-11-20T03:37:52.522Z,61.32
2022-11-20T03:38:56.541Z,61.38
2022-11-20T03:39:58.282Z,61.69
2022-11-20T03:41:05.321Z,61.85
2022-11-20T03:42:27.022Z,62.34
2022-11-20T03:43:29.138Z,62.62
2022-11-20T03:44:30.879Z,63.72
2022-11-20T03:45:32.626Z,64.50
2022-11-20T03:46:34.716Z,64.14
2022-11-20T03:47:36.978Z,63.07
2022-11-20T03:48:38.713Z,61.64
2022-11-20T03:49:40.423Z,60.07
2022-11-20T03:50:42.139Z,58.20
2022-11-20T03:51:43.896Z,56.20
2022-11-20T03:52:45.642Z,54.64
2022-11-20T03:53:49.090Z,54.08
2022-11-20T03:54:50.896Z,54.35
2022-11-20T03:55:52.727Z,54.98
2022-11-20T03:56:54.453Z,55.78
2022-11-20T03:57:56.323Z,56.35
2022-11-20T03:58:58.657Z,57.18
2022-11-20T04:00:00.830Z,57.91
2022-11-20T04:01:11.229Z,58.48
2022-11-20T04:02:13.010Z,59.02
2022-11-20T04:03:15.168Z,59.68
2022-11-20T04:04:16.974Z,60.22
2022-11-20T04:05:18.664Z,60.72
2022-11-20T04:06:26.837Z,61.24
2022-11-20T04:07:28.614Z,61.75
2022-11-20T04:08:31.884Z,62.18
2022-11-20T04:09:33.639Z,62.63
2022-11-20T04:10:35.453Z,63.68
2022-11-20T04:11:41.343Z,64.41
2022-11-20T04:12:43.111Z,64.21
2022-11-20T04:13:49.601Z,62.98
2022-11-20T04:14:51.365Z,61.37
2022-11-20T04:15:58.774Z,59.71
2022-11-20T04:17:00.562Z,57.44
2022-11-20T04:18:02.274Z,55.29
2022-11-20T04:19:07.248Z,54.46
2022-11-20T04:20:09.398Z,54.59
2022-11-20T04:21:12.294Z,55.11
2022-11-20T04:22:14.376Z,55.84
2022-11-20T04:23:16.079Z,56.65
2022-11-20T04:24:17.945Z,57.42
2022-11-20T04:25:19.692Z,58.08
2022-11-20T04:26:24.140Z,58.65
2022-11-20T04:27:25.920Z,59.17
2022-11-20T04:28:27.650Z,59.66
2022-11-20T04:29:29.363Z,60.16
2022-11-20T04:30:32.108Z,60.71
2022-11-20T04:31:35.613Z,61.14
2022-11-20T04:32:37.340Z,61.54
2022-11-20T04:33:40.643Z,61.86
2022-11-20T04:34:42.488Z,62.45
2022-11-20T04:35:48.944Z,63.39
2022-11-20T04:36:50.707Z,64.56
2022-11-20T04:37:53.104Z,64.55
2022-11-20T04:38:57.730Z,63.71
2022-11-20T04:39:59.499Z,62.39
2022-11-20T04:41:03.955Z,60.94
2022-11-20T04:42:24.454Z,59.28
2022-11-20T04:43:26.270Z,56.37
2022-11-20T04:44:27.978Z,54.98
2022-11-20T04:45:29.750Z,54.67
2022-11-20T04:46:42.984Z,54.95
2022-11-20T04:47:44.715Z,55.84
2022-11-20T04:48:46.835Z,56.73
2022-11-20T04:49:48.834Z,57.44
2022-11-20T04:50:51.274Z,58.36
2022-11-20T04:51:56.109Z,59.12
2022-11-20T04:52:57.818Z,59.95
2022-11-20T04:53:59.595Z,60.46
2022-11-20T04:55:01.347Z,60.96
2022-11-20T04:56:05.780Z,61.47
2022-11-20T04:57:12.950Z,61.96
2022-11-20T04:58:17.006Z,62.54
2022-11-20T04:59:18.879Z,63.60
2022-11-20T05:00:21.073Z,64.74
2022-11-20T05:01:25.359Z,64.84
2022-11-20T05:02:27.236Z,64.05
2022-11-20T05:03:29.115Z,62.48
2022-11-20T05:04:30.858Z,61.26
2022-11-20T05:05:35.035Z,60.17
2022-11-20T05:06:36.739Z,58.61
2022-11-20T05:07:38.525Z,56.11
2022-11-20T05:08:41.065Z,54.73
2022-11-20T05:09:42.797Z,54.55
2022-11-20T05:10:44.789Z,54.99
2022-11-20T05:11:50.407Z,55.77
2022-11-20T05:12:54.438Z,56.54
2022-11-20T05:13:56.410Z,57.38
2022-11-20T05:14:58.202Z,58.27
2022-11-20T05:16:05.914Z,58.84
2022-11-20T05:17:11.269Z,59.75
2022-11-20T05:18:13.060Z,60.82
2022-11-20T05:19:14.820Z,61.70
2022-11-20T05:20:17.037Z,62.32
2022-11-20T05:21:19.303Z,62.72
2022-11-20T05:22:21.101Z,64.04
2022-11-20T05:23:23.094Z,64.84
2022-11-20T05:24:24.852Z,64.63
2022-11-20T05:25:26.760Z,63.68
2022-11-20T05:26:28.800Z,62.24
2022-11-20T05:27:30.534Z,60.77
2022-11-20T05:28:33.450Z,59.38
2022-11-20T05:29:35.227Z,57.57
2022-11-20T05:30:36.927Z,55.72
2022-11-20T05:31:42.385Z,55.17
2022-11-20T05:32:44.116Z,55.41
2022-11-20T05:33:47.071Z,55.99
2022-11-20T05:34:48.787Z,56.65
2022-11-20T05:35:50.609Z,57.78
2022-11-20T05:36:52.418Z,58.76
2022-11-20T05:37:54.143Z,59.81
2022-11-20T05:39:01.204Z,60.40
2022-11-20T05:40:04.188Z,60.98
2022-11-20T05:41:08.800Z,61.81
2022-11-20T05:42:29.659Z,62.38
2022-11-20T05:43:34.821Z,64.00
2022-11-20T05:44:36.651Z,65.37
2022-11-20T05:45:38.448Z,65.78
2022-11-20T05:46:40.225Z,64.94
2022-11-20T05:47:42.112Z,63.40
2022-11-20T05:48:45.238Z,61.92
2022-11-20T05:49:47.086Z,60.58
2022-11-20T05:50:49.310Z,58.98
2022-11-20T05:51:51.026Z,56.83
2022-11-20T05:52:53.035Z,55.39
2022-11-20T05:53:58.434Z,55.15
2022-11-20T05:55:00.245Z,55.59
2022-11-20T05:56:06.064Z,56.42
2022-11-20T05:57:07.801Z,57.38
2022-11-20T05:58:09.816Z,58.24
2022-11-20T05:59:11.538Z,59.07
2022-11-20T06:00:14.143Z,59.93
2022-11-20T06:01:22.431Z,60.54
2022-11-20T06:02:24.266Z,61.17
2022-11-20T06:03:26.045Z,61.86
2022-11-20T06:04:27.960Z,62.55
2022-11-20T06:05:29.749Z,63.62
2022-11-20T06:06:31.550Z,64.96
2022-11-20T06:07:33.365Z,65.28
2022-11-20T06:08:35.512Z,64.70
2022-11-20T06:09:37.246Z,63.33
2022-11-20T06:10:39.061Z,61.79
2022-11-20T06:11:40.899Z,60.37
2022-11-20T06:12:42.658Z,58.94
2022-11-20T06:13:45.064Z,57.01
2022-11-20T06:14:46.805Z,55.62
2022-11-20T06:15:53.024Z,55.43
2022-11-20T06:16:54.786Z,55.91
2022-11-20T06:17:56.686Z,56.77
2022-11-20T06:18:58.883Z,57.56
2022-11-20T06:20:00.745Z,58.28
2022-11-20T06:21:06.745Z,59.23
2022-11-20T06:22:08.527Z,60.21
2022-11-20T06:23:10.327Z,60.99
2022-11-20T06:24:12.400Z,61.74
2022-11-20T06:25:14.940Z,62.46
2022-11-20T06:26:22.310Z,63.54
2022-11-20T06:27:24.122Z,64.90
2022-11-20T06:28:26.078Z,64.94
2022-11-20T06:29:32.702Z,64.10
2022-11-20T06:30:36.769Z,62.59
2022-11-20T06:31:38.863Z,61.34
2022-11-20T06:32:40.682Z,60.09
2022-11-20T06:33:43.802Z,58.70
2022-11-20T06:34:45.505Z,56.42
2022-11-20T06:35:47.248Z,55.21
2022-11-20T06:36:48.977Z,55.18
2022-11-20T06:37:50.741Z,55.78
2022-11-20T06:38:52.734Z,56.53
2022-11-20T06:39:54.494Z,57.44
2022-11-20T06:40:57.195Z,58.40
2022-11-20T06:41:59.444Z,59.15
2022-11-20T06:43:01.265Z,59.92
2022-11-20T06:44:05.474Z,60.69
2022-11-20T06:45:07.830Z,61.18
2022-11-20T06:46:11.778Z,62.19
2022-11-20T06:47:13.604Z,63.12
2022-11-20T06:48:15.370Z,64.43
2022-11-20T06:49:17.292Z,65.07
2022-11-20T06:50:19.072Z,64.73
2022-11-20T06:51:20.915Z,63.66
2022-11-20T06:52:22.681Z,62.25
2022-11-20T06:53:25.565Z,60.96
2022-11-20T06:54:27.295Z,59.70
2022-11-20T06:55:29.221Z,58.09
2022-11-20T06:56:30.943Z,56.03
2022-11-20T06:57:32.833Z,55.25
2022-11-20T06:58:36.317Z,55.39
2022-11-20T06:59:38.059Z,55.97
2022-11-20T07:00:40.135Z,56.77
2022-11-20T07:01:42.274Z,57.71
2022-11-20T07:02:43.999Z,58.69
2022-11-20T07:03:48.928Z,59.18
2022-11-20T07:04:53.130Z,59.54
2022-11-20T07:05:58.971Z,60.75
2022-11-20T07:07:00.755Z,61.68
2022-11-20T07:08:04.291Z,62.64
2022-11-20T07:09:11.380Z,64.24
2022-11-20T07:10:14.579Z,65.24
2022-11-20T07:11:16.318Z,65.17
2022-11-20T07:12:18.146Z,64.29
2022-11-20T07:13:19.909Z,63.02
2022-11-20T07:14:21.663Z,61.36
2022-11-20T07:15:26.100Z,60.06
2022-11-20T07:16:28.187Z,58.65
2022-11-20T07:17:29.965Z,56.54
2022-11-20T07:18:31.815Z,55.48
2022-11-20T07:19:33.571Z,55.53
2022-11-20T07:20:35.347Z,55.86
2022-11-20T07:21:37.130Z,56.27
2022-11-20T07:22:38.893Z,57.12
2022-11-20T07:23:40.649Z,58.26
2022-11-20T07:24:45.973Z,59.13
2022-11-20T07:25:48.180Z,59.94
2022-11-20T07:26:50.205Z,60.78
2022-11-20T07:27:52.299Z,61.25
2022-11-20T07:28:53.990Z,61.82
2022-11-20T07:29:55.790Z,62.35
2022-11-20T07:30:57.601Z,63.00
2022-11-20T07:31:59.335Z,64.49
2022-11-20T07:33:01.421Z,64.89
2022-11-20T07:34:03.372Z,64.32
2022-11-20T07:35:05.494Z,63.45
2022-11-20T07:36:07.588Z,61.93
2022-11-20T07:37:10.600Z,60.41
2022-11-20T07:38:12.568Z,59.39
2022-11-20T07:39:14.287Z,57.35
2022-11-20T07:40:17.224Z,55.33
2022-11-20T07:41:19.196Z,54.64
2022-11-20T07:42:20.945Z,54.76
2022-11-20T07:43:26.252Z,55.33
2022-11-20T07:44:28.134Z,56.30
2022-11-20T07:45:29.841Z,56.56
2022-11-20T07:46:31.810Z,57.39
2022-11-20T07:47:37.506Z,58.31
2022-11-20T07:48:39.246Z,59.17
2022-11-20T07:49:40.952Z,59.52
2022-11-20T07:50:42.699Z,59.88
2022-11-20T07:51:44.549Z,60.46
2022-11-20T07:52:46.620Z,60.81
2022-11-20T07:53:48.357Z,61.52
2022-11-20T07:54:50.090Z,61.97
2022-11-20T07:55:53.476Z,62.08
2022-11-20T07:56:55.927Z,62.92
2022-11-20T07:57:59.479Z,64.27
2022-11-20T07:59:01.303Z,64.93
2022-11-20T08:00:05.570Z,64.59
2022-11-20T08:01:14.028Z,63.37
2022-11-20T08:02:15.816Z,61.68
2022-11-20T08:03:24.069Z,59.96
2022-11-20T08:04:26.526Z,57.49
2022-11-20T08:05:28.256Z,55.15
2022-11-20T08:06:29.990Z,54.23
2022-11-20T08:07:36.937Z,54.14
2022-11-20T08:08:43.071Z,54.53
2022-11-20T08:09:45.031Z,55.34
2022-11-20T08:10:46.790Z,56.06
2022-11-20T08:12:07.115Z,56.99
2022-11-20T08:13:28.517Z,56.99
2022-11-20T08:14:30.362Z,57.59
2022-11-20T08:15:32.879Z,57.77
2022-11-20T08:16:34.653Z,58.34
2022-11-20T08:17:36.463Z,59.02
2022-11-20T08:18:38.211Z,59.41
2022-11-20T08:19:40.007Z,59.92
2022-11-20T08:20:41.779Z,59.72
2022-11-20T08:21:44.425Z,59.79
2022-11-20T08:22:46.425Z,59.95
2022-11-20T08:23:48.168Z,59.86
2022-11-20T08:24:50.125Z,60.18
2022-11-20T08:25:52.422Z,60.46
2022-11-20T08:26:55.111Z,60.73
2022-11-20T08:28:11.568Z,61.26
2022-11-20T08:29:20.642Z,61.36
2022-11-20T08:30:22.710Z,61.75
2022-11-20T08:31:26.740Z,62.17
2022-11-20T08:32:28.479Z,62.40
2022-11-20T08:33:33.991Z,62.32
2022-11-20T08:34:35.915Z,62.31
2022-11-20T08:35:38.961Z,62.68
2022-11-20T08:36:40.702Z,63.78
2022-11-20T08:37:42.557Z,64.65
2022-11-20T08:38:48.812Z,64.39
2022-11-20T08:39:50.618Z,62.57
2022-11-20T08:41:11.004Z,61.25
2022-11-20T08:42:12.716Z,59.43
2022-11-20T08:43:14.410Z,56.61
2022-11-20T08:44:16.155Z,54.17
2022-11-20T08:45:19.765Z,52.99
2022-11-20T08:46:21.893Z,52.80
2022-11-20T08:47:23.659Z,52.87
2022-11-20T08:48:25.390Z,53.33
2022-11-20T08:49:27.143Z,54.11
2022-11-20T08:50:29.096Z,54.75
2022-11-20T08:51:31.297Z,55.29
2022-11-20T08:52:36.986Z,56.14
2022-11-20T08:53:42.769Z,56.58
2022-11-20T08:54:44.502Z,56.71
2022-11-20T08:55:46.402Z,56.99
2022-11-20T08:56:48.321Z,57.52
2022-11-20T08:57:51.238Z,58.08
2022-11-20T09:00:16.154Z,58.47
2022-11-20T09:01:18.228Z,58.97
2022-11-20T09:02:20.019Z,59.17
2022-11-20T09:03:22.155Z,59.43
2022-11-20T09:04:23.901Z,59.35
2022-11-20T09:05:25.964Z,59.44
2022-11-20T09:06:28.143Z,59.65
2022-11-20T09:07:31.402Z,59.69
2022-11-20T09:08:33.980Z,59.75
2022-11-20T09:09:35.777Z,59.86
2022-11-20T09:10:40.549Z,59.83
2022-11-20T09:11:42.334Z,59.87
2022-11-20T09:12:44.467Z,60.13
2022-11-20T09:13:46.386Z,60.28
2022-11-20T09:14:53.736Z,60.32
2022-11-20T09:15:58.695Z,60.19
2022-11-20T09:17:01.035Z,60.15
2022-11-20T09:18:05.722Z,60.14
2022-11-20T09:19:40.786Z,60.04
2022-11-20T09:20:31.564Z,60.00
2022-11-20T09:21:33.296Z,59.76
2022-11-20T09:22:35.046Z,59.72
2022-11-20T09:23:38.208Z,59.78
2022-11-20T09:24:39.936Z,59.72
2022-11-20T09:25:42.315Z,59.56
2022-11-20T09:26:44.145Z,59.45
2022-11-20T09:27:47.124Z,59.35
2022-11-20T09:28:51.868Z,59.19
2022-11-20T09:29:55.978Z,59.25
2022-11-20T09:30:57.760Z,59.39
2022-11-20T09:31:59.485Z,59.33
2022-11-20T09:33:01.339Z,59.28
2022-11-20T09:34:03.299Z,59.22
2022-11-20T09:35:05.567Z,59.27
2022-11-20T09:36:07.561Z,59.38
2022-11-20T09:37:09.329Z,59.55
2022-11-20T09:38:11.821Z,59.49
2022-11-20T09:39:13.525Z,59.42
2022-11-20T09:40:22.644Z,59.41
2022-11-20T09:41:47.310Z,59.28
2022-11-20T09:42:59.686Z,59.43
2022-11-20T09:44:34.722Z,59.55
2022-11-20T09:45:51.479Z,59.87
2022-11-20T09:47:02.240Z,60.10
2022-11-20T09:48:48.337Z,60.01
2022-11-20T09:50:20.995Z,59.69
2022-11-20T09:51:27.151Z,59.53
2022-11-20T09:53:08.017Z,59.40
2022-11-20T09:54:23.264Z,59.32
2022-11-20T09:55:25.652Z,59.02
2022-11-20T09:56:29.175Z,58.77
2022-11-20T09:57:38.870Z,58.35
2022-11-20T09:58:48.561Z,58.13
2022-11-20T10:00:00.434Z,58.01
2022-11-20T10:01:17.968Z,57.76
2022-11-20T10:02:41.114Z,57.49
2022-11-20T10:03:52.041Z,57.21
2022-11-20T10:05:12.109Z,57.14
2022-11-20T10:06:19.201Z,56.94
2022-11-20T10:07:32.633Z,56.78
2022-11-20T10:08:52.863Z,56.72
2022-11-20T10:09:57.526Z,56.58
2022-11-20T10:11:39.089Z,56.29
2022-11-20T10:13:13.416Z,55.98
2022-11-20T10:14:36.729Z,55.81
2022-11-20T10:15:50.399Z,55.78
2022-11-20T10:17:01.408Z,55.90
2022-11-20T10:18:31.738Z,55.99
2022-11-20T10:19:33.371Z,55.99
2022-11-20T10:21:02.302Z,55.91
2022-11-20T10:22:25.113Z,55.53
2022-11-20T10:23:33.093Z,55.44
2022-11-20T10:24:46.955Z,55.42
2022-11-20T10:26:03.811Z,55.21
2022-11-20T10:27:36.625Z,55.30
2022-11-20T10:29:05.993Z,55.39
2022-11-20T10:30:14.493Z,55.31
2022-11-20T10:31:48.129Z,55.19
2022-11-20T10:32:56.437Z,54.70
2022-11-20T10:34:15.958Z,54.74
2022-11-20T10:35:27.098Z,54.98
2022-11-20T10:36:39.016Z,55.10
2022-11-20T10:37:48.579Z,54.88
2022-11-20T10:39:00.396Z,54.69
2022-11-20T10:40:42.866Z,54.44
2022-11-20T10:41:52.154Z,54.55
2022-11-20T10:42:59.933Z,54.20
2022-11-20T10:44:49.378Z,54.10
2022-11-20T10:46:11.638Z,53.93
2022-11-20T10:47:17.203Z,53.84
2022-11-20T10:48:26.153Z,53.67
2022-11-20T10:49:28.938Z,54.02
2022-11-20T10:50:31.923Z,54.39
2022-11-20T10:51:59.338Z,54.49
2022-11-20T10:53:19.146Z,54.46
2022-11-20T10:54:55.374Z,54.78
2022-11-20T10:56:30.714Z,54.68
2022-11-20T10:58:02.962Z,54.20
2022-11-20T10:59:32.889Z,53.57
2022-11-20T11:00:35.118Z,53.10
2022-11-20T11:01:43.355Z,52.89
2022-11-20T11:02:56.019Z,53.00
2022-11-20T11:03:59.531Z,53.43
2022-11-20T11:05:14.690Z,53.75
2022-11-20T11:06:40.979Z,53.86
2022-11-20T11:07:45.159Z,53.89
2022-11-20T11:08:51.470Z,53.84
2022-11-20T11:09:55.743Z,53.70
2022-11-20T11:11:02.581Z,53.74
2022-11-20T11:12:09.862Z,53.67
2022-11-20T11:13:26.815Z,53.32
2022-11-20T11:14:28.646Z,52.91
2022-11-20T11:15:39.862Z,52.76
2022-11-20T11:16:53.853Z,52.48
2022-11-20T11:17:56.739Z,52.59
2022-11-20T11:19:12.599Z,52.41
2022-11-20T11:20:23.392Z,52.57
2022-11-20T11:21:27.220Z,52.73
2022-11-20T11:22:35.038Z,52.73
2022-11-20T11:23:43.029Z,52.58
2022-11-20T11:24:54.033Z,52.52
2022-11-20T11:26:01.177Z,52.33
2022-11-20T11:27:16.434Z,51.88
2022-11-20T11:28:19.037Z,51.45
2022-11-20T11:29:21.241Z,51.31
2022-11-20T11:30:26.006Z,51.02
2022-11-20T11:31:30.786Z,51.06
2022-11-20T11:32:32.592Z,51.19
2022-11-20T11:33:36.956Z,51.40
2022-11-20T11:34:38.856Z,51.25
2022-11-20T11:35:59.888Z,51.12
2022-11-20T11:37:06.321Z,50.99
2022-11-20T11:38:17.024Z,50.47
2022-11-20T11:39:22.812Z,50.40
2022-11-20T11:40:25.447Z,50.07
2022-11-20T11:41:35.821Z,49.80
2022-11-20T11:42:44.421Z,49.60
2022-11-20T11:44:15.609Z,48.98
2022-11-20T11:45:18.457Z,47.83
2022-11-20T11:46:33.496Z,47.06
2022-11-20T11:47:44.269Z,46.39
2022-11-20T11:49:16.260Z,45.81
2022-11-20T11:50:21.089Z,45.44
2022-11-20T11:51:23.345Z,44.86
2022-11-20T11:52:26.393Z,44.62
2022-11-20T11:53:30.314Z,44.63
2022-11-20T11:54:46.275Z,44.84
2022-11-20T11:55:56.711Z,44.89
2022-11-20T11:57:06.483Z,44.21
2022-11-20T11:58:18.118Z,44.18
2022-11-20T11:59:45.876Z,44.12
2022-11-20T12:01:23.116Z,43.77
2022-11-20T12:02:46.630Z,43.27
2022-11-20T12:04:41.361Z,42.69
2022-11-20T12:05:51.948Z,42.40
2022-11-20T12:07:24.227Z,42.12
2022-11-20T12:08:47.870Z,42.15
2022-11-20T12:09:55.795Z,42.02
2022-11-20T12:11:03.355Z,41.56
2022-11-20T12:12:31.162Z,41.40
2022-11-20T12:13:46.395Z,41.85
2022-11-20T12:14:51.962Z,41.60
2022-11-20T12:15:54.380Z,41.62
2022-11-20T12:16:58.572Z,41.58
2022-11-20T12:18:01.131Z,41.30
2022-11-20T12:19:03.056Z,41.12
2022-11-20T12:20:13.592Z,40.96
2022-11-20T12:21:24.532Z,41.51
2022-11-20T12:22:59.958Z,41.51
2022-11-20T12:24:25.636Z,41.31
2022-11-20T12:25:37.746Z,41.17
2022-11-20T12:27:00.937Z,41.21
2022-11-20T12:28:05.552Z,41.41
2022-11-20T12:29:30.497Z,41.68
2022-11-20T12:30:38.236Z,41.63
2022-11-20T12:31:55.246Z,41.50
2022-11-20T12:33:05.997Z,41.25
2022-11-20T12:34:32.116Z,41.18
2022-11-20T12:36:03.261Z,41.17
2022-11-20T12:37:14.009Z,40.83
2022-11-20T12:38:39.965Z,40.77
2022-11-20T12:39:51.547Z,40.58
2022-11-20T12:41:48.844Z,40.44
2022-11-20T12:43:31.086Z,40.89
2022-11-20T12:45:12.424Z,40.95
2022-11-20T12:46:32.888Z,41.07
2022-11-20T12:47:37.833Z,41.32
2022-11-20T12:48:48.128Z,41.43
2022-11-20T12:50:17.416Z,41.46
2022-11-20T12:52:03.759Z,41.59
2022-11-20T12:53:26.951Z,41.49
2022-11-20T12:55:02.840Z,41.05
2022-11-20T12:56:26.135Z,41.43
2022-11-20T12:57:55.677Z,41.70
2022-11-20T12:59:00.394Z,41.57
2022-11-20T13:00:21.504Z,41.56
2022-11-20T13:01:40.859Z,41.58
2022-11-20T13:02:58.084Z,41.44
2022-11-20T13:04:27.616Z,41.33
2022-11-20T13:06:13.324Z,41.34
2022-11-20T13:07:18.336Z,41.07
2022-11-20T13:08:34.051Z,40.98
2022-11-20T13:09:49.096Z,40.71
2022-11-20T13:10:57.166Z,40.65
2022-11-20T13:12:09.820Z,40.65
2022-11-20T13:13:32.071Z,40.39
2022-11-20T13:14:43.964Z,40.41
2022-11-20T13:16:02.608Z,40.52
2022-11-20T13:17:32.787Z,40.70
2022-11-20T13:18:42.630Z,40.34
2022-11-20T13:19:52.959Z,40.45
2022-11-20T13:20:55.115Z,40.57
2022-11-20T13:21:56.933Z,40.43
2022-11-20T13:22:59.748Z,40.35
2022-11-20T13:24:20.435Z,40.43
2022-11-20T13:25:31.515Z,40.45
2022-11-20T13:26:34.151Z,40.55
2022-11-20T13:27:35.969Z,40.74
2022-11-20T13:28:37.764Z,40.76
2022-11-20T13:29:45.801Z,40.72
2022-11-20T13:30:53.192Z,40.72
2022-11-20T13:32:15.238Z,40.62
2022-11-20T13:33:24.986Z,40.77
2022-11-20T13:34:28.502Z,41.03
2022-11-20T13:35:39.077Z,41.14
2022-11-20T13:36:52.589Z,41.20
2022-11-20T13:38:03.617Z,41.18
2022-11-20T13:39:05.578Z,41.10
2022-11-20T13:40:11.269Z,41.17
2022-11-20T13:41:29.767Z,41.10
2022-11-20T13:42:31.748Z,41.05
2022-11-20T13:43:41.968Z,41.19
2022-11-20T13:44:51.528Z,41.47
2022-11-20T13:46:11.602Z,41.65
2022-11-20T13:47:28.591Z,41.78
2022-11-20T13:48:35.111Z,41.89
2022-11-20T13:49:45.261Z,41.81
2022-11-20T13:51:01.902Z,41.84
2022-11-20T13:52:40.276Z,41.71
2022-11-20T13:54:07.265Z,42.02
2022-11-20T13:55:17.822Z,42.42
2022-11-20T13:56:54.602Z,42.48
2022-11-20T13:58:29.479Z,42.94
2022-11-20T13:59:41.249Z,43.41
2022-11-20T14:00:59.457Z,43.72
2022-11-20T14:02:02.339Z,44.16
2022-11-20T14:03:06.984Z,44.44
2022-11-20T14:04:10.438Z,44.71
2022-11-20T14:05:22.455Z,45.05
2022-11-20T14:06:34.092Z,45.32
2022-11-20T14:07:42.491Z,45.68
2022-11-20T14:08:48.585Z,45.99
2022-11-20T14:09:56.089Z,46.33
2022-11-20T14:11:18.010Z,46.75
2022-11-20T14:12:23.200Z,47.04
2022-11-20T14:13:24.946Z,47.29
2022-11-20T14:14:29.795Z,47.53
2022-11-20T14:15:34.662Z,47.77
2022-11-20T14:16:37.855Z,47.99
2022-11-20T14:17:39.641Z,48.30
2022-11-20T14:18:42.016Z,48.63
2022-11-20T14:19:48.613Z,48.99
2022-11-20T14:20:50.401Z,49.40
2022-11-20T14:22:11.095Z,49.70
2022-11-20T14:23:12.894Z,49.97
2022-11-20T14:24:22.499Z,50.23
2022-11-20T14:25:31.824Z,50.61